sensor_id;sensor_type;location;lat;lon;timestamp;temperature;humidity
67759;SHT31;54562;47.620;18.786;2022-08-19T00:00:20;26.44;47.61
67759;SHT31;54562;47.620;18.786;2022-08-19T00:03:30;26.39;47.67
67759;SHT31;54562;47.620;18.786;2022-08-19T00:06:40;26.34;47.75
67759;SHT31;54562;47.620;18.786;2022-08-19T00:09:50;26.30;47.92
67759;SHT31;54562;47.620;18.786;2022-08-19T00:12:59;26.26;47.95
67759;SHT31;54562;47.620;18.786;2022-08-19T00:16:07;26.21;48.10
67759;SHT31;54562;47.620;18.786;2022-08-19T00:19:16;26.16;48.24
67759;SHT31;54562;47.620;18.786;2022-08-19T00:22:24;26.10;48.42
67759;SHT31;54562;47.620;18.786;2022-08-19T00:25:32;26.04;48.53
67759;SHT31;54562;47.620;18.786;2022-08-19T00:28:41;25.99;48.65
67759;SHT31;54562;47.620;18.786;2022-08-19T00:31:50;25.95;48.83
67759;SHT31;54562;47.620;18.786;2022-08-19T00:35:01;25.92;49.01
67759;SHT31;54562;47.620;18.786;2022-08-19T00:38:11;25.90;49.07
67759;SHT31;54562;47.620;18.786;2022-08-19T00:41:39;25.86;49.17
67759;SHT31;54562;47.620;18.786;2022-08-19T00:44:49;25.83;49.26
67759;SHT31;54562;47.620;18.786;2022-08-19T00:47:58;25.79;49.34
67759;SHT31;54562;47.620;18.786;2022-08-19T00:51:17;25.74;49.52
67759;SHT31;54562;47.620;18.786;2022-08-19T00:54:26;25.71;49.65
67759;SHT31;54562;47.620;18.786;2022-08-19T00:57:37;25.67;49.78
67759;SHT31;54562;47.620;18.786;2022-08-19T01:00:54;25.63;49.89
67759;SHT31;54562;47.620;18.786;2022-08-19T01:04:02;25.59;50.03
67759;SHT31;54562;47.620;18.786;2022-08-19T01:07:11;25.57;50.11
67759;SHT31;54562;47.620;18.786;2022-08-19T01:10:23;25.51;50.19
67759;SHT31;54562;47.620;18.786;2022-08-19T01:13:39;25.48;50.29
67759;SHT31;54562;47.620;18.786;2022-08-19T01:16:52;25.44;50.48
67759;SHT31;54562;47.620;18.786;2022-08-19T01:20:03;25.41;50.61
67759;SHT31;54562;47.620;18.786;2022-08-19T01:23:14;25.40;50.72
67759;SHT31;54562;47.620;18.786;2022-08-19T01:26:24;25.38;50.88
67759;SHT31;54562;47.620;18.786;2022-08-19T01:29:33;25.37;51.00
67759;SHT31;54562;47.620;18.786;2022-08-19T01:32:45;25.38;51.03
67759;SHT31;54562;47.620;18.786;2022-08-19T01:35:54;25.36;51.11
67759;SHT31;54562;47.620;18.786;2022-08-19T01:39:15;25.36;51.17
67759;SHT31;54562;47.620;18.786;2022-08-19T01:42:25;25.37;51.21
67759;SHT31;54562;47.620;18.786;2022-08-19T01:45:35;25.37;51.23
67759;SHT31;54562;47.620;18.786;2022-08-19T01:48:43;25.38;51.28
67759;SHT31;54562;47.620;18.786;2022-08-19T01:51:52;25.39;51.33
67759;SHT31;54562;47.620;18.786;2022-08-19T01:55:02;25.39;51.35
67759;SHT31;54562;47.620;18.786;2022-08-19T01:58:14;25.37;51.38
67759;SHT31;54562;47.620;18.786;2022-08-19T02:01:27;25.35;51.42
67759;SHT31;54562;47.620;18.786;2022-08-19T02:04:37;25.34;51.51
67759;SHT31;54562;47.620;18.786;2022-08-19T02:07:45;25.32;51.55
67759;SHT31;54562;47.620;18.786;2022-08-19T02:10:54;25.32;51.60
67759;SHT31;54562;47.620;18.786;2022-08-19T02:14:04;25.29;51.72
67759;SHT31;54562;47.620;18.786;2022-08-19T02:17:13;25.29;51.75
67759;SHT31;54562;47.620;18.786;2022-08-19T02:20:21;25.28;51.78
67759;SHT31;54562;47.620;18.786;2022-08-19T02:23:29;25.27;51.74
67759;SHT31;54562;47.620;18.786;2022-08-19T02:26:37;25.25;51.87
67759;SHT31;54562;47.620;18.786;2022-08-19T02:29:46;25.20;51.87
67759;SHT31;54562;47.620;18.786;2022-08-19T02:32:56;25.16;51.97
67759;SHT31;54562;47.620;18.786;2022-08-19T02:36:05;25.13;51.99
67759;SHT31;54562;47.620;18.786;2022-08-19T02:39:17;25.10;52.13
67759;SHT31;54562;47.620;18.786;2022-08-19T02:42:25;25.09;52.04
67759;SHT31;54562;47.620;18.786;2022-08-19T02:45:33;25.09;52.09
67759;SHT31;54562;47.620;18.786;2022-08-19T02:48:43;25.07;52.10
67759;SHT31;54562;47.620;18.786;2022-08-19T02:51:53;25.07;52.14
67759;SHT31;54562;47.620;18.786;2022-08-19T02:55:00;25.05;52.15
67759;SHT31;54562;47.620;18.786;2022-08-19T02:58:08;25.02;52.17
67759;SHT31;54562;47.620;18.786;2022-08-19T03:01:21;25.00;52.22
67759;SHT31;54562;47.620;18.786;2022-08-19T03:04:32;24.99;52.24
67759;SHT31;54562;47.620;18.786;2022-08-19T03:07:40;24.96;52.34
67759;SHT31;54562;47.620;18.786;2022-08-19T03:10:49;24.93;52.45
67759;SHT31;54562;47.620;18.786;2022-08-19T03:13:57;24.92;52.52
67759;SHT31;54562;47.620;18.786;2022-08-19T03:17:07;24.88;52.58
67759;SHT31;54562;47.620;18.786;2022-08-19T03:20:15;24.84;52.73
67759;SHT31;54562;47.620;18.786;2022-08-19T03:23:23;24.81;52.81
67759;SHT31;54562;47.620;18.786;2022-08-19T03:26:32;24.79;52.83
67759;SHT31;54562;47.620;18.786;2022-08-19T03:29:42;24.77;52.90
67759;SHT31;54562;47.620;18.786;2022-08-19T03:32:51;24.72;53.01
67759;SHT31;54562;47.620;18.786;2022-08-19T03:36:04;24.67;53.15
67759;SHT31;54562;47.620;18.786;2022-08-19T03:39:16;24.63;53.24
67759;SHT31;54562;47.620;18.786;2022-08-19T03:42:24;24.59;53.42
67759;SHT31;54562;47.620;18.786;2022-08-19T03:45:58;24.56;53.58
67759;SHT31;54562;47.620;18.786;2022-08-19T03:49:10;24.51;53.76
67759;SHT31;54562;47.620;18.786;2022-08-19T03:52:20;24.48;53.89
67759;SHT31;54562;47.620;18.786;2022-08-19T03:55:28;24.44;54.02
67759;SHT31;54562;47.620;18.786;2022-08-19T03:58:36;24.42;54.11
67759;SHT31;54562;47.620;18.786;2022-08-19T04:01:49;24.39;54.14
67759;SHT31;54562;47.620;18.786;2022-08-19T04:04:57;24.39;54.19
67759;SHT31;54562;47.620;18.786;2022-08-19T04:08:05;24.39;54.27
67759;SHT31;54562;47.620;18.786;2022-08-19T04:11:16;24.39;54.33
67759;SHT31;54562;47.620;18.786;2022-08-19T04:14:46;24.37;54.39
67759;SHT31;54562;47.620;18.786;2022-08-19T04:17:55;24.36;54.46
67759;SHT31;54562;47.620;18.786;2022-08-19T04:21:04;24.35;54.47
67759;SHT31;54562;47.620;18.786;2022-08-19T04:24:19;24.36;54.40
67759;SHT31;54562;47.620;18.786;2022-08-19T04:27:28;24.38;54.36
67759;SHT31;54562;47.620;18.786;2022-08-19T04:30:41;24.41;54.33
67759;SHT31;54562;47.620;18.786;2022-08-19T04:33:52;24.43;54.36
67759;SHT31;54562;47.620;18.786;2022-08-19T04:37:04;24.45;54.31
67759;SHT31;54562;47.620;18.786;2022-08-19T04:40:15;24.46;54.34
67759;SHT31;54562;47.620;18.786;2022-08-19T04:43:41;24.45;54.36
67759;SHT31;54562;47.620;18.786;2022-08-19T04:46:51;24.44;54.38
67759;SHT31;54562;47.620;18.786;2022-08-19T04:50:01;24.43;54.36
67759;SHT31;54562;47.620;18.786;2022-08-19T04:53:13;24.43;54.38
67759;SHT31;54562;47.620;18.786;2022-08-19T04:56:21;24.43;54.45
67759;SHT31;54562;47.620;18.786;2022-08-19T04:59:29;24.42;54.47
67759;SHT31;54562;47.620;18.786;2022-08-19T05:02:37;24.43;54.53
67759;SHT31;54562;47.620;18.786;2022-08-19T05:05:46;24.43;54.56
67759;SHT31;54562;47.620;18.786;2022-08-19T05:08:54;24.47;54.50
67759;SHT31;54562;47.620;18.786;2022-08-19T05:12:03;24.52;54.45
67759;SHT31;54562;47.620;18.786;2022-08-19T05:15:12;24.59;54.32
67759;SHT31;54562;47.620;18.786;2022-08-19T05:18:20;24.69;54.13
67759;SHT31;54562;47.620;18.786;2022-08-19T05:21:46;24.81;53.89
67759;SHT31;54562;47.620;18.786;2022-08-19T05:25:13;24.92;53.63
67759;SHT31;54562;47.620;18.786;2022-08-19T05:28:24;25.01;53.44
67759;SHT31;54562;47.620;18.786;2022-08-19T05:31:33;25.13;53.21
67759;SHT31;54562;47.620;18.786;2022-08-19T05:34:44;25.26;52.89
67759;SHT31;54562;47.620;18.786;2022-08-19T05:37:52;25.39;52.54
67759;SHT31;54562;47.620;18.786;2022-08-19T05:41:01;25.51;52.21
67759;SHT31;54562;47.620;18.786;2022-08-19T05:44:15;25.61;52.01
67759;SHT31;54562;47.620;18.786;2022-08-19T05:47:25;25.70;51.75
67759;SHT31;54562;47.620;18.786;2022-08-19T05:50:34;25.78;51.46
67759;SHT31;54562;47.620;18.786;2022-08-19T05:53:43;25.85;51.22
67759;SHT31;54562;47.620;18.786;2022-08-19T05:56:52;25.91;51.10
67759;SHT31;54562;47.620;18.786;2022-08-19T06:00:01;25.98;50.97
67759;SHT31;54562;47.620;18.786;2022-08-19T06:03:12;26.05;50.83
67759;SHT31;54562;47.620;18.786;2022-08-19T06:06:21;26.10;50.63
67759;SHT31;54562;47.620;18.786;2022-08-19T06:09:29;26.16;50.58
67759;SHT31;54562;47.620;18.786;2022-08-19T06:12:38;26.24;50.38
67759;SHT31;54562;47.620;18.786;2022-08-19T06:15:47;26.34;50.30
67759;SHT31;54562;47.620;18.786;2022-08-19T06:18:55;26.46;50.16
67759;SHT31;54562;47.620;18.786;2022-08-19T06:22:07;26.59;49.86
67759;SHT31;54562;47.620;18.786;2022-08-19T06:25:16;26.70;49.58
67759;SHT31;54562;47.620;18.786;2022-08-19T06:28:29;26.81;49.44
67759;SHT31;54562;47.620;18.786;2022-08-19T06:31:40;26.92;49.06
67759;SHT31;54562;47.620;18.786;2022-08-19T06:34:52;27.02;48.73
67759;SHT31;54562;47.620;18.786;2022-08-19T06:38:00;27.12;48.27
67759;SHT31;54562;47.620;18.786;2022-08-19T06:41:08;27.20;47.96
67759;SHT31;54562;47.620;18.786;2022-08-19T06:44:16;27.29;47.78
67759;SHT31;54562;47.620;18.786;2022-08-19T06:47:28;27.36;47.50
67759;SHT31;54562;47.620;18.786;2022-08-19T06:50:36;27.42;47.28
67759;SHT31;54562;47.620;18.786;2022-08-19T06:53:45;27.49;47.10
67759;SHT31;54562;47.620;18.786;2022-08-19T06:56:55;27.57;47.07
67759;SHT31;54562;47.620;18.786;2022-08-19T07:00:06;27.64;46.78
67759;SHT31;54562;47.620;18.786;2022-08-19T07:03:17;27.70;46.68
67759;SHT31;54562;47.620;18.786;2022-08-19T07:06:25;27.80;46.58
67759;SHT31;54562;47.620;18.786;2022-08-19T07:09:47;27.91;46.20
67759;SHT31;54562;47.620;18.786;2022-08-19T07:13:02;28.01;45.97
67759;SHT31;54562;47.620;18.786;2022-08-19T07:16:12;28.13;46.03
67759;SHT31;54562;47.620;18.786;2022-08-19T07:19:32;28.33;45.75
67759;SHT31;54562;47.620;18.786;2022-08-19T07:22:42;28.54;45.40
67759;SHT31;54562;47.620;18.786;2022-08-19T07:25:51;28.73;45.00
67759;SHT31;54562;47.620;18.786;2022-08-19T07:29:00;28.83;44.67
67759;SHT31;54562;47.620;18.786;2022-08-19T07:32:08;28.97;44.39
67759;SHT31;54562;47.620;18.786;2022-08-19T07:35:16;29.15;44.22
67759;SHT31;54562;47.620;18.786;2022-08-19T07:38:25;29.32;43.29
67759;SHT31;54562;47.620;18.786;2022-08-19T07:41:34;29.47;43.09
67759;SHT31;54562;47.620;18.786;2022-08-19T07:44:42;29.62;42.92
67759;SHT31;54562;47.620;18.786;2022-08-19T07:47:52;29.76;42.76
67759;SHT31;54562;47.620;18.786;2022-08-19T07:51:02;29.92;42.33
67759;SHT31;54562;47.620;18.786;2022-08-19T07:54:17;30.06;42.08
67759;SHT31;54562;47.620;18.786;2022-08-19T07:57:27;30.26;41.91
67759;SHT31;54562;47.620;18.786;2022-08-19T08:00:35;30.35;41.43
67759;SHT31;54562;47.620;18.786;2022-08-19T08:03:45;30.43;41.40
67759;SHT31;54562;47.620;18.786;2022-08-19T08:07:11;30.50;41.28
67759;SHT31;54562;47.620;18.786;2022-08-19T08:10:38;30.60;40.93
67759;SHT31;54562;47.620;18.786;2022-08-19T08:13:55;30.71;40.83
67759;SHT31;54562;47.620;18.786;2022-08-19T08:17:07;30.83;40.53
67759;SHT31;54562;47.620;18.786;2022-08-19T08:20:32;30.97;40.60
67759;SHT31;54562;47.620;18.786;2022-08-19T08:23:41;31.12;40.38
67759;SHT31;54562;47.620;18.786;2022-08-19T08:26:48;31.28;40.03
67759;SHT31;54562;47.620;18.786;2022-08-19T08:29:59;31.49;39.82
67759;SHT31;54562;47.620;18.786;2022-08-19T08:33:12;31.66;39.26
67759;SHT31;54562;47.620;18.786;2022-08-19T08:36:37;31.77;38.31
67759;SHT31;54562;47.620;18.786;2022-08-19T08:39:48;31.83;37.98
67759;SHT31;54562;47.620;18.786;2022-08-19T08:42:58;31.91;37.56
67759;SHT31;54562;47.620;18.786;2022-08-19T08:46:15;31.95;37.18
67759;SHT31;54562;47.620;18.786;2022-08-19T08:49:36;32.01;37.28
67759;SHT31;54562;47.620;18.786;2022-08-19T08:52:53;32.14;37.11
67759;SHT31;54562;47.620;18.786;2022-08-19T08:56:04;32.27;36.45
67759;SHT31;54562;47.620;18.786;2022-08-19T08:59:20;32.42;36.36
67759;SHT31;54562;47.620;18.786;2022-08-19T09:02:35;32.57;36.25
67759;SHT31;54562;47.620;18.786;2022-08-19T09:05:48;32.72;36.31
67759;SHT31;54562;47.620;18.786;2022-08-19T09:09:09;32.87;36.02
67759;SHT31;54562;47.620;18.786;2022-08-19T09:12:33;33.03;35.58
67759;SHT31;54562;47.620;18.786;2022-08-19T09:15:56;33.13;34.81
67759;SHT31;54562;47.620;18.786;2022-08-19T09:19:10;33.20;34.61
67759;SHT31;54562;47.620;18.786;2022-08-19T09:22:24;33.26;34.25
67759;SHT31;54562;47.620;18.786;2022-08-19T09:25:33;33.32;34.28
67759;SHT31;54562;47.620;18.786;2022-08-19T09:28:43;33.39;34.04
67759;SHT31;54562;47.620;18.786;2022-08-19T09:31:56;33.51;33.85
67759;SHT31;54562;47.620;18.786;2022-08-19T09:35:04;33.58;33.64
67759;SHT31;54562;47.620;18.786;2022-08-19T09:38:14;33.64;33.05
67759;SHT31;54562;47.620;18.786;2022-08-19T09:41:23;33.65;33.08
67759;SHT31;54562;47.620;18.786;2022-08-19T09:44:32;33.69;33.24
67759;SHT31;54562;47.620;18.786;2022-08-19T09:47:40;33.69;33.29
67759;SHT31;54562;47.620;18.786;2022-08-19T09:50:49;33.70;33.45
67759;SHT31;54562;47.620;18.786;2022-08-19T09:54:00;33.72;33.05
67759;SHT31;54562;47.620;18.786;2022-08-19T09:57:14;33.74;33.07
67759;SHT31;54562;47.620;18.786;2022-08-19T10:00:22;33.84;33.18
67759;SHT31;54562;47.620;18.786;2022-08-19T10:03:31;34.02;33.20
67759;SHT31;54562;47.620;18.786;2022-08-19T10:06:41;34.10;32.41
67759;SHT31;54562;47.620;18.786;2022-08-19T10:09:56;34.14;32.42
67759;SHT31;54562;47.620;18.786;2022-08-19T10:13:04;34.22;32.49
67759;SHT31;54562;47.620;18.786;2022-08-19T10:16:14;34.32;40.77
67759;SHT31;54562;47.620;18.786;2022-08-19T10:19:32;34.49;35.38
67759;SHT31;54562;47.620;18.786;2022-08-19T10:22:41;34.66;33.57
67759;SHT31;54562;47.620;18.786;2022-08-19T10:25:54;34.81;32.76
67759;SHT31;54562;47.620;18.786;2022-08-19T10:29:07;34.99;32.69
67759;SHT31;54562;47.620;18.786;2022-08-19T10:32:35;35.22;31.80
67759;SHT31;54562;47.620;18.786;2022-08-19T10:35:48;35.41;32.70
67759;SHT31;54562;47.620;18.786;2022-08-19T10:39:06;35.62;31.39
67759;SHT31;54562;47.620;18.786;2022-08-19T10:42:16;35.76;30.51
67759;SHT31;54562;47.620;18.786;2022-08-19T10:45:24;35.86;30.35
67759;SHT31;54562;47.620;18.786;2022-08-19T10:48:31;35.92;30.17
67759;SHT31;54562;47.620;18.786;2022-08-19T10:51:41;36.08;29.98
67759;SHT31;54562;47.620;18.786;2022-08-19T10:55:12;36.22;29.13
67759;SHT31;54562;47.620;18.786;2022-08-19T10:58:39;36.27;28.82
67759;SHT31;54562;47.620;18.786;2022-08-19T11:01:47;36.32;28.65
67759;SHT31;54562;47.620;18.786;2022-08-19T11:04:59;36.35;28.47
67759;SHT31;54562;47.620;18.786;2022-08-19T11:08:15;36.44;28.59
67759;SHT31;54562;47.620;18.786;2022-08-19T11:11:25;36.65;28.54
67759;SHT31;54562;47.620;18.786;2022-08-19T11:14:40;36.85;28.05
67759;SHT31;54562;47.620;18.786;2022-08-19T11:17:48;36.91;27.88
67759;SHT31;54562;47.620;18.786;2022-08-19T11:21:05;36.99;27.83
67759;SHT31;54562;47.620;18.786;2022-08-19T11:24:17;37.14;27.76
67759;SHT31;54562;47.620;18.786;2022-08-19T11:27:27;37.42;27.68
67759;SHT31;54562;47.620;18.786;2022-08-19T11:30:38;37.76;27.68
67759;SHT31;54562;47.620;18.786;2022-08-19T11:33:46;38.01;27.05
67759;SHT31;54562;47.620;18.786;2022-08-19T11:36:57;38.07;26.70
67759;SHT31;54562;47.620;18.786;2022-08-19T11:40:10;38.08;26.34
67759;SHT31;54562;47.620;18.786;2022-08-19T11:43:19;38.17;26.52
67759;SHT31;54562;47.620;18.786;2022-08-19T11:46:27;38.17;26.19
67759;SHT31;54562;47.620;18.786;2022-08-19T11:49:35;38.13;26.57
67759;SHT31;54562;47.620;18.786;2022-08-19T11:52:44;37.85;26.36
67759;SHT31;54562;47.620;18.786;2022-08-19T11:55:53;37.41;26.81
67759;SHT31;54562;47.620;18.786;2022-08-19T11:59:02;37.18;26.93
67759;SHT31;54562;47.620;18.786;2022-08-19T12:02:16;37.00;27.23
67759;SHT31;54562;47.620;18.786;2022-08-19T12:05:24;36.89;27.38
67759;SHT31;54562;47.620;18.786;2022-08-19T12:08:36;36.75;27.55
67759;SHT31;54562;47.620;18.786;2022-08-19T12:11:44;36.65;28.02
67759;SHT31;54562;47.620;18.786;2022-08-19T12:14:54;36.86;27.98
67759;SHT31;54562;47.620;18.786;2022-08-19T12:18:02;37.32;27.51
67759;SHT31;54562;47.620;18.786;2022-08-19T12:21:12;37.47;27.24
67759;SHT31;54562;47.620;18.786;2022-08-19T12:24:24;37.40;26.98
67759;SHT31;54562;47.620;18.786;2022-08-19T12:27:34;37.22;26.63
67759;SHT31;54562;47.620;18.786;2022-08-19T12:30:55;36.98;26.73
67759;SHT31;54562;47.620;18.786;2022-08-19T12:34:09;36.91;26.87
67759;SHT31;54562;47.620;18.786;2022-08-19T12:37:18;37.01;27.18
67759;SHT31;54562;47.620;18.786;2022-08-19T12:40:27;37.08;27.24
67759;SHT31;54562;47.620;18.786;2022-08-19T12:43:35;37.18;27.08
67759;SHT31;54562;47.620;18.786;2022-08-19T12:46:46;37.34;26.92
67759;SHT31;54562;47.620;18.786;2022-08-19T12:49:55;37.52;26.73
67759;SHT31;54562;47.620;18.786;2022-08-19T12:53:09;37.61;26.50
67759;SHT31;54562;47.620;18.786;2022-08-19T12:56:17;37.83;26.53
67759;SHT31;54562;47.620;18.786;2022-08-19T12:59:25;37.98;26.23
67759;SHT31;54562;47.620;18.786;2022-08-19T13:02:32;38.00;25.93
67759;SHT31;54562;47.620;18.786;2022-08-19T13:05:41;38.00;25.92
67759;SHT31;54562;47.620;18.786;2022-08-19T13:08:49;38.01;26.05
67759;SHT31;54562;47.620;18.786;2022-08-19T13:12:01;37.67;26.15
67759;SHT31;54562;47.620;18.786;2022-08-19T13:15:16;37.28;26.56
67759;SHT31;54562;47.620;18.786;2022-08-19T13:18:27;37.02;27.00
67759;SHT31;54562;47.620;18.786;2022-08-19T13:21:35;36.84;27.06
67759;SHT31;54562;47.620;18.786;2022-08-19T13:24:44;36.61;27.25
67759;SHT31;54562;47.620;18.786;2022-08-19T13:27:53;36.37;27.56
67759;SHT31;54562;47.620;18.786;2022-08-19T13:30:59;36.12;27.92
67759;SHT31;54562;47.620;18.786;2022-08-19T13:34:27;35.63;30.01
67759;SHT31;54562;47.620;18.786;2022-08-19T13:37:39;34.90;31.33
67759;SHT31;54562;47.620;18.786;2022-08-19T13:40:48;34.33;32.74
67759;SHT31;54562;47.620;18.786;2022-08-19T13:43:58;33.82;33.98
67759;SHT31;54562;47.620;18.786;2022-08-19T13:47:07;33.21;35.53
67759;SHT31;54562;47.620;18.786;2022-08-19T13:50:17;32.70;37.05
67759;SHT31;54562;47.620;18.786;2022-08-19T13:53:31;32.22;38.47
67759;SHT31;54562;47.620;18.786;2022-08-19T13:56:41;32.04;39.17
67759;SHT31;54562;47.620;18.786;2022-08-19T13:59:51;32.05;39.19
67759;SHT31;54562;47.620;18.786;2022-08-19T14:02:59;32.13;38.84
67759;SHT31;54562;47.620;18.786;2022-08-19T14:06:11;32.22;38.55
67759;SHT31;54562;47.620;18.786;2022-08-19T14:09:19;32.29;38.26
67759;SHT31;54562;47.620;18.786;2022-08-19T14:12:31;32.34;38.13
67759;SHT31;54562;47.620;18.786;2022-08-19T14:15:39;32.57;37.92
67759;SHT31;54562;47.620;18.786;2022-08-19T14:18:47;32.69;37.87
67759;SHT31;54562;47.620;18.786;2022-08-19T14:21:56;32.60;37.84
67759;SHT31;54562;47.620;18.786;2022-08-19T14:25:06;32.49;37.80
67759;SHT31;54562;47.620;18.786;2022-08-19T14:28:17;32.41;38.03
67759;SHT31;54562;47.620;18.786;2022-08-19T14:31:30;32.39;37.88
67759;SHT31;54562;47.620;18.786;2022-08-19T14:34:38;32.27;37.53
67759;SHT31;54562;47.620;18.786;2022-08-19T14:37:49;32.13;36.80
67759;SHT31;54562;47.620;18.786;2022-08-19T14:41:07;32.16;35.94
67759;SHT31;54562;47.620;18.786;2022-08-19T14:44:19;32.20;35.29
67759;SHT31;54562;47.620;18.786;2022-08-19T14:47:28;32.12;34.67
67759;SHT31;54562;47.620;18.786;2022-08-19T14:50:36;32.01;34.36
67759;SHT31;54562;47.620;18.786;2022-08-19T14:53:44;32.04;34.49
67759;SHT31;54562;47.620;18.786;2022-08-19T14:56:52;32.16;34.10
67759;SHT31;54562;47.620;18.786;2022-08-19T15:00:01;32.14;34.45
67759;SHT31;54562;47.620;18.786;2022-08-19T15:03:15;32.12;34.42
67759;SHT31;54562;47.620;18.786;2022-08-19T15:06:23;32.03;34.81
67759;SHT31;54562;47.620;18.786;2022-08-19T15:09:32;31.91;35.38
67759;SHT31;54562;47.620;18.786;2022-08-19T15:12:40;31.81;36.03
67759;SHT31;54562;47.620;18.786;2022-08-19T15:15:53;31.72;36.21
67759;SHT31;54562;47.620;18.786;2022-08-19T15:19:02;31.65;36.21
67759;SHT31;54562;47.620;18.786;2022-08-19T15:22:10;31.55;35.47
67759;SHT31;54562;47.620;18.786;2022-08-19T15:25:18;31.46;34.97
67759;SHT31;54562;47.620;18.786;2022-08-19T15:28:26;31.36;34.94
67759;SHT31;54562;47.620;18.786;2022-08-19T15:31:36;31.26;34.83
67759;SHT31;54562;47.620;18.786;2022-08-19T15:34:45;31.16;34.71
67759;SHT31;54562;47.620;18.786;2022-08-19T15:37:53;31.08;34.82
67759;SHT31;54562;47.620;18.786;2022-08-19T15:41:03;31.00;34.89
67759;SHT31;54562;47.620;18.786;2022-08-19T15:44:23;30.92;35.13
67759;SHT31;54562;47.620;18.786;2022-08-19T15:47:32;30.86;35.78
67759;SHT31;54562;47.620;18.786;2022-08-19T15:50:40;30.78;35.50
67759;SHT31;54562;47.620;18.786;2022-08-19T15:53:48;30.71;35.76
67759;SHT31;54562;47.620;18.786;2022-08-19T15:56:57;30.60;35.93
67759;SHT31;54562;47.620;18.786;2022-08-19T16:00:23;30.46;36.02
67759;SHT31;54562;47.620;18.786;2022-08-19T16:03:55;30.39;36.51
67759;SHT31;54562;47.620;18.786;2022-08-19T16:07:22;30.29;36.83
67759;SHT31;54562;47.620;18.786;2022-08-19T16:10:30;30.15;36.61
67759;SHT31;54562;47.620;18.786;2022-08-19T16:13:38;30.03;36.70
67759;SHT31;54562;47.620;18.786;2022-08-19T16:16:46;29.83;37.29
67759;SHT31;54562;47.620;18.786;2022-08-19T16:19:55;29.66;37.58
67759;SHT31;54562;47.620;18.786;2022-08-19T16:23:03;29.52;38.02
67759;SHT31;54562;47.620;18.786;2022-08-19T16:26:12;29.34;38.42
67759;SHT31;54562;47.620;18.786;2022-08-19T16:29:24;29.20;38.64
67759;SHT31;54562;47.620;18.786;2022-08-19T16:32:42;29.13;38.70
67759;SHT31;54562;47.620;18.786;2022-08-19T16:35:51;29.08;38.72
67759;SHT31;54562;47.620;18.786;2022-08-19T16:39:09;29.04;38.88
67759;SHT31;54562;47.620;18.786;2022-08-19T16:42:19;29.00;39.08
67759;SHT31;54562;47.620;18.786;2022-08-19T16:45:28;28.96;39.39
67759;SHT31;54562;47.620;18.786;2022-08-19T16:48:37;28.94;39.39
67759;SHT31;54562;47.620;18.786;2022-08-19T16:51:48;28.91;39.47
67759;SHT31;54562;47.620;18.786;2022-08-19T16:54:56;28.85;39.87
67759;SHT31;54562;47.620;18.786;2022-08-19T16:58:04;28.79;40.22
67759;SHT31;54562;47.620;18.786;2022-08-19T17:01:12;28.74;40.40
67759;SHT31;54562;47.620;18.786;2022-08-19T17:04:21;28.69;40.56
67759;SHT31;54562;47.620;18.786;2022-08-19T17:07:29;28.63;40.70
67759;SHT31;54562;47.620;18.786;2022-08-19T17:10:37;28.56;41.03
67759;SHT31;54562;47.620;18.786;2022-08-19T17:14:06;28.51;41.04
67759;SHT31;54562;47.620;18.786;2022-08-19T17:17:14;28.47;41.14
67759;SHT31;54562;47.620;18.786;2022-08-19T17:20:27;28.39;41.63
67759;SHT31;54562;47.620;18.786;2022-08-19T17:23:37;28.12;43.62
67759;SHT31;54562;47.620;18.786;2022-08-19T17:26:46;27.66;47.60
67759;SHT31;54562;47.620;18.786;2022-08-19T17:29:54;27.00;50.97
67759;SHT31;54562;47.620;18.786;2022-08-19T17:33:03;26.22;52.13
67759;SHT31;54562;47.620;18.786;2022-08-19T17:36:13;25.62;54.08
67759;SHT31;54562;47.620;18.786;2022-08-19T17:39:21;25.18;55.11
67759;SHT31;54562;47.620;18.786;2022-08-19T17:42:29;24.70;56.86
67759;SHT31;54562;47.620;18.786;2022-08-19T17:45:38;24.40;58.18
67759;SHT31;54562;47.620;18.786;2022-08-19T17:48:48;24.16;58.98
67759;SHT31;54562;47.620;18.786;2022-08-19T17:51:59;23.88;60.23
67759;SHT31;54562;47.620;18.786;2022-08-19T17:55:12;23.68;61.33
67759;SHT31;54562;47.620;18.786;2022-08-19T17:58:21;23.57;61.44
67759;SHT31;54562;47.620;18.786;2022-08-19T18:01:29;23.54;62.39
67759;SHT31;54562;47.620;18.786;2022-08-19T18:04:55;23.53;62.71
67759;SHT31;54562;47.620;18.786;2022-08-19T18:08:04;23.54;62.87
67759;SHT31;54562;47.620;18.786;2022-08-19T18:11:14;23.45;64.34
67759;SHT31;54562;47.620;18.786;2022-08-19T18:14:23;23.39;65.03
67759;SHT31;54562;47.620;18.786;2022-08-19T18:17:36;23.32;65.93
67759;SHT31;54562;47.620;18.786;2022-08-19T18:20:44;23.18;66.38
67759;SHT31;54562;47.620;18.786;2022-08-19T18:23:52;23.06;67.24
67759;SHT31;54562;47.620;18.786;2022-08-19T18:27:04;22.98;67.74
67759;SHT31;54562;47.620;18.786;2022-08-19T18:30:13;22.91;67.10
67759;SHT31;54562;47.620;18.786;2022-08-19T18:33:24;22.91;65.79
67759;SHT31;54562;47.620;18.786;2022-08-19T18:36:32;22.89;65.70
67759;SHT31;54562;47.620;18.786;2022-08-19T18:39:56;22.84;66.00
67759;SHT31;54562;47.620;18.786;2022-08-19T18:43:22;22.77;66.24
67759;SHT31;54562;47.620;18.786;2022-08-19T18:46:48;22.66;67.30
67759;SHT31;54562;47.620;18.786;2022-08-19T18:50:14;22.52;68.14
67759;SHT31;54562;47.620;18.786;2022-08-19T18:53:22;22.42;68.68
67759;SHT31;54562;47.620;18.786;2022-08-19T18:56:34;22.25;69.69
67759;SHT31;54562;47.620;18.786;2022-08-19T18:59:49;22.13;70.16
67759;SHT31;54562;47.620;18.786;2022-08-19T19:02:58;22.01;71.32
67759;SHT31;54562;47.620;18.786;2022-08-19T19:06:07;21.94;71.32
67759;SHT31;54562;47.620;18.786;2022-08-19T19:09:16;21.90;71.89
67759;SHT31;54562;47.620;18.786;2022-08-19T19:12:28;21.78;71.93
67759;SHT31;54562;47.620;18.786;2022-08-19T19:15:38;21.59;70.82
67759;SHT31;54562;47.620;18.786;2022-08-19T19:18:46;21.44;70.25
67759;SHT31;54562;47.620;18.786;2022-08-19T19:21:55;21.33;71.01
67759;SHT31;54562;47.620;18.786;2022-08-19T19:25:05;21.12;72.48
67759;SHT31;54562;47.620;18.786;2022-08-19T19:28:13;20.85;74.18
67759;SHT31;54562;47.620;18.786;2022-08-19T19:31:24;20.65;74.93
67759;SHT31;54562;47.620;18.786;2022-08-19T19:34:37;20.54;75.01
67759;SHT31;54562;47.620;18.786;2022-08-19T19:37:45;20.64;75.14
67759;SHT31;54562;47.620;18.786;2022-08-19T19:40:55;20.70;75.43
67759;SHT31;54562;47.620;18.786;2022-08-19T19:44:03;20.75;76.05
67759;SHT31;54562;47.620;18.786;2022-08-19T19:47:33;20.85;76.62